Archival Weather

Salzburg

Salzburg, Austria (LOWS)

Report from: Thursday, September 21, 2023 9:50 AM CEST
Current time: Saturday, February 24, 2024 5:14 PM CET

Current weather – Weather history – Daily summaries
Weather forecast

Temperature20.0°C (68.0°F)
Dew point14.0°C (57.2°F)
Winds 6 kts (3.1 m/s, 6.9 mph) Vrb
Winds variableWinds variable from East-Southeast (110°) to South (170°)
Visibility6.2 mi. (10 km)
Clouds Few clouds 6,000 ft. (1,829 m)
Altimeter29.71 in.Hg (1006 mB)
Relative humidity68 %
Density altitude1,052 ft. (321 m)
Remarks Fully automated report
No significant changes expected in the next two hours
Flight conditions Visual Meteorological Conditions
Raw dataLOWS 210750Z AUTO 14006KT 110V170 9999 FEW060 20/14 Q1006 NOSIG
An error has occurred. This application may no longer respond until reloaded. Reload 🗙